createdAt,value
2022-08-16T00:00:38.686Z,100354.97
2022-08-16T00:03:06.570Z,100359.28
2022-08-16T00:05:48.466Z,100364.56
2022-08-16T00:08:35.963Z,100367.38
2022-08-16T00:11:05.797Z,100363.38
2022-08-16T00:13:41.815Z,100371.31
2022-08-16T00:17:01.376Z,100362.69
2022-08-16T00:18:56.500Z,100372.31
2022-08-16T00:21:23.521Z,100372.97
2022-08-16T00:23:50.254Z,100376.63
2022-08-16T00:26:35.001Z,100376.63
2022-08-16T00:29:04.761Z,100372.16
2022-08-16T00:31:59.410Z,100380.25
2022-08-16T00:34:22.948Z,100378.72
2022-08-16T00:37:10.394Z,100379.38
2022-08-16T00:39:37.200Z,100380.31
2022-08-16T00:42:10.175Z,100387.44
2022-08-16T00:44:38.901Z,100386.28
2022-08-16T00:47:12.509Z,100384.63
2022-08-16T00:49:44.872Z,100392.19
2022-08-16T00:52:29.525Z,100380.25
2022-08-16T00:54:57.189Z,100380.69
2022-08-16T00:57:24.208Z,100380.84
2022-08-16T00:59:58.729Z,100377.38
2022-08-16T01:02:31.235Z,100379.19
2022-08-16T01:05:10.782Z,100370.41
2022-08-16T01:07:51.135Z,100371.38
2022-08-16T01:10:32.035Z,100370.56
2022-08-16T01:13:06.627Z,100364.44
2022-08-16T01:15:36.366Z,100373.34
2022-08-16T01:18:06.638Z,100369.88
2022-08-16T01:20:41.666Z,100375.69
2022-08-16T01:23:14.790Z,100382.19
2022-08-16T01:26:00.216Z,100372.66
2022-08-16T01:28:38.814Z,100376.38
2022-08-16T01:31:13.713Z,100368.44
2022-08-16T01:33:40.397Z,100374.03
2022-08-16T01:36:12.998Z,100374.31
2022-08-16T01:38:48.971Z,100375.63
2022-08-16T01:41:19.937Z,100375.25
2022-08-16T01:43:53.713Z,100375.25
2022-08-16T01:46:37.210Z,100382.50
2022-08-16T01:49:15.433Z,100374.97
2022-08-16T01:51:45.702Z,100373.38
2022-08-16T01:54:13.175Z,100373.50
2022-08-16T01:56:40.952Z,100370.34
2022-08-16T01:59:15.727Z,100377.72
2022-08-16T02:01:49.570Z,100373.38
2022-08-16T02:04:48.215Z,100381.16
2022-08-16T02:07:11.316Z,100376.16
2022-08-16T02:09:41.071Z,100374.66
2022-08-16T02:12:50.481Z,100383.41
2022-08-16T02:14:57.608Z,100388.25
2022-08-16T02:17:28.502Z,100384.03
2022-08-16T02:20:00.018Z,100385.97
2022-08-16T02:22:34.815Z,100381.81
2022-08-16T02:25:14.635Z,100382.13
2022-08-16T02:27:43.802Z,100385.91
2022-08-16T02:30:37.197Z,100383.56
2022-08-16T02:33:06.381Z,100382.13
2022-08-16T02:35:34.210Z,100381.97
2022-08-16T02:38:16.874Z,100384.25
2022-08-16T02:40:45.634Z,100380.84
2022-08-16T02:43:13.159Z,100384.25
2022-08-16T02:45:41.145Z,100383.13
2022-08-16T02:48:28.235Z,100376.84
2022-08-16T02:51:07.998Z,100372.22
2022-08-16T02:53:44.817Z,100378.88
2022-08-16T02:56:15.168Z,100374.19
2022-08-16T02:58:44.114Z,100376.59
2022-08-16T03:01:25.310Z,100371.72
2022-08-16T03:04:41.057Z,100374.00
2022-08-16T03:06:46.654Z,100372.34
2022-08-16T03:09:16.284Z,100370.66
2022-08-16T03:11:44.726Z,100371.81
2022-08-16T03:14:12.248Z,100386.59
2022-08-16T03:16:58.590Z,100384.50
2022-08-16T03:19:59.414Z,100382.47
2022-08-16T03:22:19.520Z,100390.31
2022-08-16T03:24:57.353Z,100379.34
2022-08-16T03:27:25.013Z,100385.88
2022-08-16T03:29:54.476Z,100388.16
2022-08-16T03:32:21.792Z,100382.06
2022-08-16T03:34:50.017Z,100383.63
2022-08-16T03:37:17.085Z,100377.66
2022-08-16T03:39:43.772Z,100374.34
2022-08-16T03:42:10.590Z,100383.09
2022-08-16T03:44:44.734Z,100376.53
2022-08-16T03:47:18.783Z,100391.56
2022-08-16T03:49:52.282Z,100383.38
2022-08-16T03:52:23.906Z,100388.16
2022-08-16T03:54:59.277Z,100389.13
2022-08-16T03:57:31.807Z,100394.63
2022-08-16T04:00:35.224Z,100395.09
2022-08-16T04:03:07.254Z,100394.69
2022-08-16T04:05:36.969Z,100392.59
2022-08-16T04:08:22.423Z,100401.09
2022-08-16T04:10:52.850Z,100404.59
2022-08-16T04:13:20.557Z,100404.19
2022-08-16T04:16:06.971Z,100409.09
2022-08-16T04:18:36.826Z,100414.78
2022-08-16T04:21:03.851Z,100421.19
2022-08-16T04:23:30.432Z,100426.75
2022-08-16T04:25:58.243Z,100426.75
2022-08-16T04:28:53.496Z,100427.19
2022-08-16T04:31:15.456Z,100423.31
2022-08-16T04:33:50.749Z,100430.41
2022-08-16T04:36:20.171Z,100434.53
2022-08-16T04:38:47.277Z,100438.44
2022-08-16T04:41:17.327Z,100435.09
2022-08-16T04:43:45.028Z,100442.34
2022-08-16T04:46:19.850Z,100435.25
2022-08-16T04:49:01.732Z,100438.72
2022-08-16T04:51:28.255Z,100442.06
2022-08-16T04:54:03.171Z,100443.84
2022-08-16T04:56:30.431Z,100452.47
2022-08-16T04:58:57.732Z,100455.38
2022-08-16T05:01:24.702Z,100452.59
2022-08-16T05:04:19.481Z,100461.50
2022-08-16T05:06:47.088Z,100464.16
2022-08-16T05:09:14.257Z,100460.38
2022-08-16T05:11:45.672Z,100459.53
2022-08-16T05:14:20.155Z,100462.88
2022-08-16T05:17:02.616Z,100472.50
2022-08-16T05:19:35.923Z,100468.88
2022-08-16T05:22:02.887Z,100471.91
2022-08-16T05:24:32.755Z,100475.25
2022-08-16T05:27:00.215Z,100471.22
2022-08-16T05:29:56.858Z,100479.53
2022-08-16T05:32:32.883Z,100483.16
2022-08-16T05:35:07.758Z,100484.28
2022-08-16T05:37:40.251Z,100482.44
2022-08-16T05:40:09.268Z,100469.03
2022-08-16T05:42:40.163Z,100472.47
2022-08-16T05:45:13.088Z,100476.59
2022-08-16T05:47:48.076Z,100476.69
2022-08-16T05:50:28.198Z,100471.50
2022-08-16T05:53:00.577Z,100470.75
2022-08-16T05:55:28.215Z,100476.97
2022-08-16T05:57:56.945Z,100466.53
2022-08-16T06:00:23.755Z,100458.81
2022-08-16T06:02:51.121Z,100457.69
2022-08-16T06:05:18.204Z,100462.31
2022-08-16T06:07:45.463Z,100460.09
2022-08-16T06:10:32.369Z,100469.72
2022-08-16T06:13:02.663Z,100483.47
2022-08-16T06:15:30.656Z,100487.78
2022-08-16T06:17:58.942Z,100488.19
2022-08-16T06:20:35.038Z,100486.81
2022-08-16T06:23:04.047Z,100497.94
2022-08-16T06:25:39.605Z,100494.00
2022-08-16T06:28:16.943Z,100496.03
2022-08-16T06:30:59.058Z,100496.13
2022-08-16T06:33:28.320Z,100492.19
2022-08-16T06:35:59.480Z,100486.88
2022-08-16T06:38:33.069Z,100488.25
2022-08-16T06:41:01.516Z,100487.22
2022-08-16T06:43:29.064Z,100487.44
2022-08-16T06:45:56.281Z,100480.53
2022-08-16T06:48:32.135Z,100485.94
2022-08-16T06:51:00.015Z,100488.69
2022-08-16T06:53:26.574Z,100490.34
2022-08-16T06:55:58.733Z,100490.34
2022-08-16T06:58:31.933Z,100483.66
2022-08-16T07:01:00.241Z,100487.81
2022-08-16T07:03:32.404Z,100501.56
2022-08-16T07:05:59.692Z,100502.38
2022-08-16T07:08:27.703Z,100496.63
2022-08-16T07:10:56.390Z,100506.75
2022-08-16T07:16:15.666Z,100509.97
2022-08-16T07:19:01.551Z,100513.69
2022-08-16T07:21:46.573Z,100519.47
2022-08-16T07:24:30.468Z,100516.06
2022-08-16T07:27:00.664Z,100520.91
2022-08-16T07:29:28.008Z,100516.22
2022-08-16T07:31:58.968Z,100518.59
2022-08-16T07:34:35.025Z,100515.97
2022-08-16T07:37:07.512Z,100518.84
2022-08-16T07:39:34.364Z,100524.34
2022-08-16T07:42:10.028Z,100519.91
2022-08-16T07:44:49.100Z,100526.22
2022-08-16T07:47:17.353Z,100525.91
2022-08-16T07:49:52.846Z,100522.59
2022-08-16T07:52:29.636Z,100531.75
2022-08-16T07:54:56.316Z,100537.59
2022-08-16T07:57:24.099Z,100543.75
2022-08-16T07:59:53.531Z,100540.09
2022-08-16T08:02:33.459Z,100542.41
2022-08-16T08:05:03.442Z,100538.63
2022-08-16T08:07:32.386Z,100555.94
2022-08-16T08:10:00.974Z,100561.25
2022-08-16T08:12:32.447Z,100557.47
2022-08-16T08:15:05.980Z,100559.97
2022-08-16T08:17:43.217Z,100560.13
2022-08-16T08:20:20.854Z,100550.34
2022-08-16T08:23:00.027Z,100555.69
2022-08-16T08:25:54.308Z,100552.19
2022-08-16T08:28:17.271Z,100557.88
2022-08-16T08:30:51.927Z,100549.75
2022-08-16T08:33:28.637Z,100555.06
2022-08-16T08:36:01.061Z,100557.75
2022-08-16T08:38:46.022Z,100559.06
2022-08-16T08:41:18.655Z,100560.75
2022-08-16T08:43:47.359Z,100556.91
2022-08-16T08:46:21.438Z,100561.72
2022-08-16T08:49:00.165Z,100564.38
2022-08-16T08:51:35.887Z,100568.38
2022-08-16T08:54:09.266Z,100570.38
2022-08-16T08:56:45.450Z,100570.53
2022-08-16T08:59:19.760Z,100570.88
2022-08-16T09:01:57.175Z,100570.72
2022-08-16T09:04:24.779Z,100571.69
2022-08-16T09:06:53.759Z,100571.34
2022-08-16T09:09:21.000Z,100571.66
2022-08-16T09:11:53.310Z,100568.84
2022-08-16T09:14:24.010Z,100565.31
2022-08-16T09:17:01.581Z,100565.84
2022-08-16T09:19:34.664Z,100573.50
2022-08-16T09:22:01.706Z,100566.34
2022-08-16T09:24:46.674Z,100576.47
2022-08-16T09:27:14.987Z,100569.00
2022-08-16T09:29:45.417Z,100563.66
2022-08-16T09:32:13.163Z,100568.28
2022-08-16T09:34:58.504Z,100561.94
2022-08-16T09:37:29.467Z,100562.78
2022-08-16T09:39:59.632Z,100562.44
2022-08-16T09:42:30.486Z,100565.75
2022-08-16T09:45:18.512Z,100557.88
2022-08-16T09:47:56.469Z,100554.34
2022-08-16T09:50:38.327Z,100551.50
2022-08-16T09:53:15.527Z,100554.81
2022-08-16T09:55:49.374Z,100554.81
2022-08-16T09:58:40.738Z,100547.81
2022-08-16T10:01:04.501Z,100554.78
2022-08-16T10:03:31.622Z,100553.91
2022-08-16T10:05:58.314Z,100554.72
2022-08-16T10:08:26.307Z,100547.56
2022-08-16T10:11:12.274Z,100555.38
2022-08-16T10:13:39.671Z,100556.69
2022-08-16T10:16:09.230Z,100547.69
2022-08-16T10:19:02.320Z,100553.13
2022-08-16T10:21:24.526Z,100551.25
2022-08-16T10:23:56.041Z,100547.88
2022-08-16T10:27:17.503Z,100547.50
2022-08-16T10:29:19.948Z,100551.00
2022-08-16T10:31:53.340Z,100555.16
2022-08-16T10:34:31.744Z,100551.09
2022-08-16T10:37:01.977Z,100551.09
2022-08-16T10:39:40.599Z,100548.56
2022-08-16T10:42:08.748Z,100557.75
2022-08-16T10:44:37.494Z,100555.03
2022-08-16T10:47:05.358Z,100557.34
2022-08-16T10:49:34.754Z,100545.31
2022-08-16T10:52:18.810Z,100544.31
2022-08-16T10:57:36.600Z,100546.59
2022-08-16T11:00:22.520Z,100546.59
2022-08-16T11:02:58.872Z,100544.59
2022-08-16T11:05:59.103Z,100556.94
2022-08-16T11:08:13.869Z,100560.22
2022-08-16T11:11:06.451Z,100552.97
2022-08-16T11:16:27.774Z,100553.38
2022-08-16T11:19:14.382Z,100558.06
2022-08-16T11:24:41.430Z,100547.91
2022-08-16T11:27:22.990Z,100545.06
2022-08-16T11:29:53.363Z,100551.13
2022-08-16T11:32:31.395Z,100553.19
2022-08-16T11:35:14.350Z,100559.22
2022-08-16T11:40:52.166Z,100558.75
2022-08-16T11:43:23.799Z,100559.53
2022-08-16T11:45:55.315Z,100558.88
2022-08-16T11:48:25.626Z,100565.22
2022-08-16T11:50:52.915Z,100559.97
2022-08-16T11:53:21.212Z,100567.16
2022-08-16T11:55:55.047Z,100550.28
2022-08-16T11:58:31.800Z,100552.31
2022-08-16T12:01:00.469Z,100556.09
2022-08-16T12:03:35.095Z,100556.66
2022-08-16T12:06:30.557Z,100552.16
2022-08-16T12:09:01.054Z,100566.50
2022-08-16T12:11:31.445Z,100565.50
2022-08-16T12:14:00.743Z,100565.22
2022-08-16T12:16:31.083Z,100565.50
2022-08-16T12:19:00.781Z,100570.44
2022-08-16T12:21:36.005Z,100571.75
2022-08-16T12:24:37.237Z,100566.03
2022-08-16T12:27:05.825Z,100568.34
2022-08-16T12:29:35.505Z,100562.63
2022-08-16T12:32:35.774Z,100559.69
2022-08-16T12:34:52.768Z,100561.13
2022-08-16T12:37:20.774Z,100556.81
2022-08-16T12:39:50.761Z,100558.28
2022-08-16T12:42:20.574Z,100561.88
2022-08-16T12:44:47.671Z,100561.44
2022-08-16T12:47:32.868Z,100564.09
2022-08-16T12:50:01.810Z,100565.00
2022-08-16T12:52:33.888Z,100571.09
2022-08-16T12:55:02.167Z,100573.69
2022-08-16T12:57:58.047Z,100570.34
2022-08-16T13:00:33.071Z,100571.13
2022-08-16T13:03:02.454Z,100575.78
2022-08-16T13:07:58.838Z,100565.13
2022-08-16T13:10:37.082Z,100570.31
2022-08-16T13:13:08.846Z,100563.81
2022-08-16T13:15:51.818Z,100568.50
2022-08-16T13:18:32.343Z,100560.97
2022-08-16T13:21:06.694Z,100564.28
2022-08-16T13:23:35.886Z,100560.69
2022-08-16T13:26:03.454Z,100561.50
2022-08-16T13:28:30.047Z,100562.09
2022-08-16T13:30:58.417Z,100559.81
2022-08-16T13:33:37.166Z,100558.28
2022-08-16T13:36:17.135Z,100550.50
2022-08-16T13:38:53.080Z,100559.56
2022-08-16T13:41:21.087Z,100557.63
2022-08-16T13:43:55.096Z,100559.66
2022-08-16T13:46:24.704Z,100561.59
2022-08-16T13:48:52.977Z,100559.75
2022-08-16T13:51:20.287Z,100564.97
2022-08-16T13:53:59.055Z,100556.47
2022-08-16T13:56:37.185Z,100557.66
2022-08-16T13:59:19.286Z,100557.09
2022-08-16T14:01:55.079Z,100556.63
2022-08-16T14:04:32.376Z,100549.09
2022-08-16T14:07:01.393Z,100544.78
2022-08-16T14:09:30.293Z,100541.34
2022-08-16T14:12:00.877Z,100543.22
2022-08-16T14:14:30.063Z,100535.97
2022-08-16T14:17:01.811Z,100548.19
2022-08-16T14:19:31.397Z,100546.09
2022-08-16T14:22:14.243Z,100555.97
2022-08-16T14:24:47.068Z,100559.34
2022-08-16T14:27:17.054Z,100562.91
2022-08-16T14:29:44.766Z,100559.47
2022-08-16T14:32:13.134Z,100562.22
2022-08-16T14:34:52.087Z,100561.88
2022-08-16T14:37:25.332Z,100555.91
2022-08-16T14:39:54.495Z,100560.09
2022-08-16T14:42:23.969Z,100558.22
2022-08-16T14:44:51.952Z,100552.38
2022-08-16T14:47:18.874Z,100560.59
2022-08-16T14:49:45.504Z,100562.38
2022-08-16T14:52:44.283Z,100561.16
2022-08-16T14:55:06.119Z,100556.28
2022-08-16T14:57:33.374Z,100564.75
2022-08-16T15:00:05.646Z,100568.94
2022-08-16T15:02:34.343Z,100557.34
2022-08-16T15:05:04.471Z,100550.34
2022-08-16T15:07:35.138Z,100554.09
2022-08-16T15:10:02.385Z,100553.81
2022-08-16T15:12:33.680Z,100550.75
2022-08-16T15:15:12.878Z,100550.59
2022-08-16T15:17:54.060Z,100548.41
2022-08-16T15:20:23.037Z,100548.34
2022-08-16T15:22:53.302Z,100546.38
2022-08-16T15:25:31.896Z,100546.75
2022-08-16T15:28:04.705Z,100553.78
2022-08-16T15:30:56.637Z,100545.94
2022-08-16T15:33:23.235Z,100546.53
2022-08-16T15:35:55.316Z,100553.94
2022-08-16T15:38:55.027Z,100544.59
2022-08-16T15:41:47.990Z,100545.25
2022-08-16T15:44:22.523Z,100546.59
2022-08-16T15:46:55.301Z,100547.34
2022-08-16T15:49:37.761Z,100548.50
2022-08-16T15:52:20.542Z,100555.28
2022-08-16T15:54:53.657Z,100546.22
2022-08-16T15:57:25.920Z,100550.28
2022-08-16T15:59:56.097Z,100550.88
2022-08-16T16:02:31.606Z,100544.03
2022-08-16T16:05:04.363Z,100551.06
2022-08-16T16:07:33.245Z,100547.13
2022-08-16T16:10:01.976Z,100549.75
2022-08-16T16:12:50.201Z,100548.50
2022-08-16T16:15:22.686Z,100539.97
2022-08-16T16:17:53.085Z,100551.03
2022-08-16T16:20:24.326Z,100552.88
2022-08-16T16:22:51.476Z,100544.16
2022-08-16T16:25:18.679Z,100545.38
2022-08-16T16:27:45.562Z,100547.78
2022-08-16T16:30:37.218Z,100546.69
2022-08-16T16:33:02.398Z,100542.84
2022-08-16T16:35:32.745Z,100541.16
2022-08-16T16:38:01.014Z,100543.06
2022-08-16T16:40:32.723Z,100538.81
2022-08-16T16:43:04.231Z,100541.47
2022-08-16T16:45:36.349Z,100547.47
2022-08-16T16:48:12.347Z,100541.00
2022-08-16T16:50:44.597Z,100549.16
2022-08-16T16:53:17.126Z,100545.44
2022-08-16T16:55:51.680Z,100547.09
2022-08-16T16:58:43.329Z,100552.72
2022-08-16T17:01:10.330Z,100548.81
2022-08-16T17:03:38.630Z,100543.19
2022-08-16T17:06:10.193Z,100543.88
2022-08-16T17:08:41.435Z,100547.72
2022-08-16T17:11:09.842Z,100544.63
2022-08-16T17:13:36.972Z,100546.06
2022-08-16T17:16:05.183Z,100551.56
2022-08-16T17:19:17.153Z,100544.91
2022-08-16T17:21:19.525Z,100544.91
2022-08-16T17:23:58.008Z,100546.06
2022-08-16T17:26:30.988Z,100551.91
2022-08-16T17:29:02.803Z,100549.34
2022-08-16T17:31:40.922Z,100544.09
2022-08-16T17:34:28.833Z,100542.81
2022-08-16T17:36:59.577Z,100541.06
2022-08-16T17:39:30.479Z,100542.81
2022-08-16T17:42:03.318Z,100548.94
2022-08-16T17:44:30.181Z,100544.88
2022-08-16T17:46:56.715Z,100549.09
2022-08-16T17:49:23.320Z,100554.00
2022-08-16T17:51:50.009Z,100547.25
2022-08-16T17:54:20.335Z,100556.75
2022-08-16T17:56:57.083Z,100556.47
2022-08-16T17:59:24.278Z,100559.34
2022-08-16T18:01:50.972Z,100556.34
2022-08-16T18:04:48.087Z,100559.94
2022-08-16T18:07:05.374Z,100559.28
2022-08-16T18:09:31.996Z,100562.69
2022-08-16T18:11:58.712Z,100560.38
2022-08-16T18:14:51.075Z,100564.03
2022-08-16T18:17:12.988Z,100564.47
2022-08-16T18:19:39.656Z,100560.72
2022-08-16T18:22:18.112Z,100570.34
2022-08-16T18:24:49.893Z,100562.88
2022-08-16T18:27:25.653Z,100578.06
2022-08-16T18:29:53.247Z,100580.25
2022-08-16T18:32:23.147Z,100570.78
2022-08-16T18:34:52.447Z,100577.13
2022-08-16T18:37:19.076Z,100575.34
2022-08-16T18:39:45.688Z,100586.91
2022-08-16T18:42:15.031Z,100582.59
2022-08-16T18:44:43.597Z,100584.63
2022-08-16T18:47:10.386Z,100585.00
2022-08-16T18:49:37.211Z,100589.97
2022-08-16T18:52:04.303Z,100591.34
2022-08-16T18:54:32.811Z,100596.53
2022-08-16T18:56:59.493Z,100588.41
2022-08-16T18:59:29.501Z,100591.06
2022-08-16T19:02:00.130Z,100585.56
2022-08-16T19:04:55.916Z,100588.56
2022-08-16T19:07:19.366Z,100598.75
2022-08-16T19:09:46.551Z,100607.13
2022-08-16T19:12:15.976Z,100608.16
2022-08-16T19:14:44.245Z,100614.81
2022-08-16T19:17:12.007Z,100616.81
2022-08-16T19:19:38.572Z,100623.09
2022-08-16T19:22:06.308Z,100621.47
2022-08-16T19:24:33.061Z,100615.81
2022-08-16T19:26:59.657Z,100612.84
2022-08-16T19:29:28.625Z,100614.84
2022-08-16T19:31:55.358Z,100617.88
2022-08-16T19:34:22.014Z,100619.53
2022-08-16T19:36:48.782Z,100628.19
2022-08-16T19:39:16.255Z,100622.88
2022-08-16T19:41:45.723Z,100630.38
2022-08-16T19:44:12.792Z,100634.38
2022-08-16T19:46:43.549Z,100633.88
2022-08-16T19:49:10.245Z,100632.03
2022-08-16T19:51:42.614Z,100640.19
2022-08-16T19:54:09.133Z,100637.69
2022-08-16T19:56:35.687Z,100639.69
2022-08-16T19:59:18.912Z,100649.16
2022-08-16T20:01:46.457Z,100650.50
2022-08-16T20:04:13.575Z,100648.16
2022-08-16T20:06:42.318Z,100655.31
2022-08-16T20:09:10.386Z,100660.47
2022-08-16T20:11:39.193Z,100669.78
2022-08-16T20:14:05.740Z,100664.13
2022-08-16T20:16:32.471Z,100667.44
2022-08-16T20:18:59.073Z,100665.78
2022-08-16T20:21:25.983Z,100667.28
2022-08-16T20:23:58.318Z,100671.94
2022-08-16T20:26:36.925Z,100670.78
2022-08-16T20:29:06.704Z,100679.91
2022-08-16T20:31:33.349Z,100680.72
2022-08-16T20:33:59.993Z,100690.53
2022-08-16T20:36:26.566Z,100681.56
2022-08-16T20:38:54.034Z,100688.41
2022-08-16T20:41:20.540Z,100686.03
2022-08-16T20:43:47.691Z,100686.38
2022-08-16T20:46:14.710Z,100680.91
2022-08-16T20:48:41.833Z,100683.25
2022-08-16T20:51:10.772Z,100679.72
2022-08-16T20:53:39.360Z,100677.94
2022-08-16T20:56:06.970Z,100681.56
2022-08-16T20:58:33.778Z,100693.38
2022-08-16T21:01:01.093Z,100691.53
2022-08-16T21:03:27.910Z,100692.06
2022-08-16T21:05:57.629Z,100691.38
2022-08-16T21:08:52.714Z,100695.03
2022-08-16T21:11:11.735Z,100698.34
2022-08-16T21:13:42.594Z,100702.34
2022-08-16T21:16:09.981Z,100705.31
2022-08-16T21:18:36.535Z,100700.34
2022-08-16T21:21:03.316Z,100698.66
2022-08-16T21:23:30.958Z,100701.34
2022-08-16T21:25:57.999Z,100696.00
2022-08-16T21:28:40.527Z,100699.34
2022-08-16T21:31:11.555Z,100693.66
2022-08-16T21:33:38.111Z,100693.66
2022-08-16T21:36:05.376Z,100699.50
2022-08-16T21:38:32.344Z,100701.16
2022-08-16T21:41:00.259Z,100691.34
2022-08-16T21:43:32.271Z,100696.09
2022-08-16T21:46:03.373Z,100688.63
2022-08-16T21:48:33.570Z,100694.94
2022-08-16T21:51:10.619Z,100691.59
2022-08-16T21:53:37.727Z,100692.59
2022-08-16T21:56:06.286Z,100685.63
2022-08-16T21:58:33.656Z,100692.94
2022-08-16T22:01:01.470Z,100687.09
2022-08-16T22:03:28.453Z,100687.44
2022-08-16T22:06:11.516Z,100687.94
2022-08-16T22:08:48.055Z,100687.94
2022-08-16T22:11:17.325Z,100686.25
2022-08-16T22:13:49.243Z,100687.44
2022-08-16T22:16:26.127Z,100686.59
2022-08-16T22:18:53.053Z,100683.13
2022-08-16T22:21:20.470Z,100693.56
2022-08-16T22:23:57.846Z,100701.88
2022-08-16T22:26:31.878Z,100699.03
2022-08-16T22:29:06.177Z,100707.13
2022-08-16T22:31:33.978Z,100701.81
2022-08-16T22:34:02.044Z,100696.50
2022-08-16T22:36:29.806Z,100696.00
2022-08-16T22:38:58.699Z,100698.31
2022-08-16T22:41:31.959Z,100704.25
2022-08-16T22:44:00.305Z,100709.56
2022-08-16T22:46:26.877Z,100710.41
2022-08-16T22:48:53.572Z,100700.09
2022-08-16T22:51:22.903Z,100702.59
2022-08-16T22:53:49.802Z,100696.44
2022-08-16T22:56:17.833Z,100701.09
2022-08-16T22:58:45.708Z,100694.59
2022-08-16T23:01:13.578Z,100690.28
2022-08-16T23:03:41.463Z,100691.41
2022-08-16T23:06:10.359Z,100696.59
2022-08-16T23:08:40.652Z,100686.78
2022-08-16T23:11:10.606Z,100689.59
2022-08-16T23:13:37.738Z,100682.94
2022-08-16T23:16:17.495Z,100680.75
2022-08-16T23:18:44.449Z,100675.75
2022-08-16T23:21:11.897Z,100675.75
2022-08-16T23:23:39.253Z,100679.69
2022-08-16T23:26:47.203Z,100682.34
2022-08-16T23:28:54.787Z,100682.66
2022-08-16T23:31:21.343Z,100682.66
2022-08-16T23:33:47.879Z,100682.97
2022-08-16T23:36:14.640Z,100682.63
2022-08-16T23:38:41.973Z,100678.09
2022-08-16T23:41:11.763Z,100671.25
2022-08-16T23:43:42.130Z,100670.75
2022-08-16T23:46:19.534Z,100676.06
2022-08-16T23:49:59.360Z,100663.78
2022-08-16T23:51:32.988Z,100676.16
2022-08-16T23:54:00.664Z,100682.94
2022-08-16T23:56:27.208Z,100677.09
2022-08-16T23:59:02.674Z,100673.44
